createdAt,value
2019-04-04T00:02:08.042Z,13.47
2019-04-04T00:04:39.726Z,14.17
2019-04-04T00:07:10.364Z,14.07
2019-04-04T00:09:41.081Z,12.50
2019-04-04T00:12:12.379Z,13.50
2019-04-04T00:14:43.828Z,15.53
2019-04-04T00:17:15.214Z,14.63
2019-04-04T00:19:45.957Z,13.87
2019-04-04T00:22:16.861Z,14.13
2019-04-04T00:24:47.695Z,14.67
2019-04-04T00:27:18.429Z,16.03
2019-04-04T00:29:49.100Z,15.07
2019-04-04T00:32:21.072Z,15.70
2019-04-04T00:34:52.368Z,16.70
2019-04-04T00:37:23.002Z,17.47
2019-04-04T00:39:53.620Z,15.70
2019-04-04T00:42:24.818Z,16.07
2019-04-04T00:44:55.826Z,17.03
2019-04-04T00:47:27.107Z,17.30
2019-04-04T00:49:57.944Z,16.40
2019-04-04T00:52:28.601Z,17.17
2019-04-04T00:54:59.220Z,19.67
2019-04-04T00:57:30.201Z,20.07
2019-04-04T01:00:01.404Z,22.63
2019-04-04T01:02:32.149Z,20.83
2019-04-04T01:05:03.128Z,21.17
2019-04-04T01:07:35.742Z,19.60
2019-04-04T01:10:07.126Z,22.30
2019-04-04T01:12:37.857Z,22.83
2019-04-04T01:15:08.935Z,22.70
2019-04-04T01:17:39.537Z,22.10
2019-04-04T01:20:11.416Z,21.80
2019-04-04T01:22:42.098Z,22.17
2019-04-04T01:25:12.831Z,22.20
2019-04-04T01:27:43.686Z,24.80
2019-04-04T01:30:14.501Z,22.77
2019-04-04T01:32:47.905Z,24.40
2019-04-04T01:35:17.435Z,26.77
2019-04-04T01:37:48.161Z,26.50
2019-04-04T01:40:18.781Z,25.30
2019-04-04T01:42:49.429Z,25.00
2019-04-04T01:45:19.996Z,25.33
2019-04-04T01:47:50.690Z,25.37
2019-04-04T01:50:22.798Z,24.77
2019-04-04T01:52:53.550Z,25.23
2019-04-04T01:55:24.096Z,26.10
2019-04-04T01:57:54.774Z,23.90
2019-04-04T02:00:26.126Z,22.00
2019-04-04T02:02:56.953Z,21.37
2019-04-04T02:05:27.697Z,21.43
2019-04-04T02:07:58.874Z,20.50
2019-04-04T02:10:30.801Z,20.80
2019-04-04T02:13:01.355Z,20.47
2019-04-04T02:15:32.040Z,19.77
2019-04-04T02:18:03.044Z,20.80
2019-04-04T02:20:34.461Z,19.90
2019-04-04T02:23:05.200Z,18.83
2019-04-04T02:25:35.958Z,17.27
2019-04-04T02:28:06.926Z,19.80
2019-04-04T02:30:39.067Z,17.70
2019-04-04T02:33:09.738Z,21.93
2019-04-04T02:35:42.773Z,19.20
2019-04-04T02:38:12.877Z,17.77
2019-04-04T02:40:43.748Z,17.93
2019-04-04T02:43:14.688Z,16.37
2019-04-04T02:45:45.370Z,17.27
2019-04-04T02:48:16.316Z,16.40
2019-04-04T02:50:49.358Z,17.33
2019-04-04T02:53:20.625Z,19.03
2019-04-04T02:55:51.402Z,21.47
2019-04-04T02:58:22.253Z,19.67
2019-04-04T03:00:52.884Z,21.63
2019-04-04T03:03:23.511Z,23.73
2019-04-04T03:05:54.196Z,22.90
2019-04-04T03:08:24.932Z,23.63
2019-04-04T03:10:55.830Z,22.90
2019-04-04T03:13:31.150Z,23.70
2019-04-04T03:15:58.916Z,24.77
2019-04-04T03:18:29.484Z,22.80
2019-04-04T03:21:00.420Z,24.33
2019-04-04T03:23:33.860Z,22.33
2019-04-04T03:26:03.403Z,23.57
2019-04-04T03:28:34.052Z,23.50
2019-04-04T03:31:04.767Z,22.90
2019-04-04T03:33:35.437Z,25.43
2019-04-04T03:36:06.185Z,23.83
2019-04-04T03:38:36.898Z,24.67
2019-04-04T03:41:08.100Z,24.40
2019-04-04T03:43:38.981Z,24.80
2019-04-04T03:46:11.397Z,23.00
2019-04-04T03:48:41.972Z,23.00
2019-04-04T03:51:12.776Z,24.30
2019-04-04T03:53:49.504Z,24.93
2019-04-04T03:56:20.565Z,22.67
2019-04-04T03:58:52.154Z,23.07
2019-04-04T04:01:22.924Z,24.00
2019-04-04T04:03:55.367Z,21.93
2019-04-04T04:06:25.914Z,22.87
2019-04-04T04:08:56.488Z,25.07
2019-04-04T04:11:27.186Z,23.60
2019-04-04T04:13:57.841Z,24.90
2019-04-04T04:16:28.449Z,24.33
2019-04-04T04:18:59.093Z,23.00
2019-04-04T04:21:29.739Z,25.47
2019-04-04T04:24:00.586Z,23.87
2019-04-04T04:26:31.258Z,24.00
2019-04-04T04:29:02.025Z,25.90
2019-04-04T04:31:32.971Z,25.47
2019-04-04T04:34:03.708Z,24.40
2019-04-04T04:36:34.541Z,26.53
2019-04-04T04:39:06.461Z,24.73
2019-04-04T04:41:37.531Z,26.50
2019-04-04T04:44:08.309Z,25.37
2019-04-04T04:46:39.049Z,25.73
2019-04-04T04:49:09.808Z,24.27
2019-04-04T04:51:43.246Z,27.27
2019-04-04T04:54:13.443Z,24.63
2019-04-04T04:56:44.104Z,26.67
2019-04-04T04:59:14.761Z,25.47
2019-04-04T05:01:45.883Z,26.20
2019-04-04T05:04:16.561Z,26.10
2019-04-04T05:06:47.472Z,25.93
2019-04-04T05:09:18.305Z,27.13
2019-04-04T05:11:50.339Z,28.03
2019-04-04T05:14:21.709Z,29.83
2019-04-04T05:16:52.517Z,27.93
2019-04-04T05:19:23.239Z,27.00
2019-04-04T05:21:55.875Z,29.47
2019-04-04T05:24:26.788Z,30.10
2019-04-04T05:26:57.596Z,29.83
2019-04-04T05:29:28.487Z,29.97
2019-04-04T05:31:59.299Z,27.63
2019-04-04T05:34:30.335Z,27.23
2019-04-04T05:37:01.799Z,25.90
2019-04-04T05:39:32.431Z,25.00
2019-04-04T05:42:03.166Z,24.67
2019-04-04T05:44:34.323Z,23.77
2019-04-04T05:47:05.433Z,23.17
2019-04-04T05:49:38.215Z,23.90
2019-04-04T05:52:09.179Z,21.03
2019-04-04T05:54:40.054Z,21.97
2019-04-04T05:57:10.919Z,22.37
2019-04-04T05:59:42.466Z,21.10
2019-04-04T06:02:13.431Z,20.60
2019-04-04T06:04:47.026Z,22.80
2019-04-04T06:07:17.756Z,22.80
2019-04-04T06:09:48.589Z,23.47
2019-04-04T06:12:19.305Z,21.87
2019-04-04T06:14:50.284Z,20.50
2019-04-04T06:17:20.878Z,21.00
2019-04-04T06:19:51.562Z,17.67
2019-04-04T06:22:22.242Z,15.93
2019-04-04T06:24:53.033Z,17.03
2019-04-04T06:27:23.880Z,17.67
2019-04-04T06:29:54.545Z,16.03
2019-04-04T06:32:25.388Z,15.73
2019-04-04T06:34:56.791Z,16.10
2019-04-04T06:37:27.853Z,16.70
2019-04-04T06:40:01.063Z,16.47
2019-04-04T06:42:35.494Z,18.20
2019-04-04T06:45:07.534Z,20.80
2019-04-04T06:47:38.595Z,18.40
2019-04-04T06:50:12.357Z,18.97
2019-04-04T06:52:42.956Z,17.90
2019-04-04T06:55:14.784Z,18.03
2019-04-04T06:57:47.931Z,17.93
2019-04-04T07:00:17.880Z,17.63
2019-04-04T07:02:48.568Z,18.30
2019-04-04T07:05:19.361Z,17.13
2019-04-04T07:07:51.526Z,18.80
2019-04-04T07:10:22.869Z,17.47
2019-04-04T07:13:06.302Z,17.13
2019-04-04T07:15:25.923Z,17.93
2019-04-04T07:17:56.678Z,18.37
2019-04-04T07:20:28.615Z,18.47
2019-04-04T07:22:59.511Z,17.40
2019-04-04T07:25:30.229Z,17.97
2019-04-04T07:28:00.981Z,17.30
2019-04-04T07:30:31.871Z,20.50
2019-04-04T07:33:02.784Z,20.77
2019-04-04T07:35:33.529Z,20.73
2019-04-04T07:38:04.531Z,19.83
2019-04-04T07:40:42.970Z,19.10
2019-04-04T07:43:13.966Z,19.30
2019-04-04T07:45:44.713Z,19.00
2019-04-04T07:48:17.786Z,20.23
2019-04-04T07:50:47.817Z,19.57
2019-04-04T07:53:18.517Z,21.03
2019-04-04T07:55:49.413Z,18.50
2019-04-04T07:58:20.074Z,20.73
2019-04-04T08:00:52.682Z,19.30
2019-04-04T08:03:23.545Z,18.30
2019-04-04T08:05:54.296Z,19.40
2019-04-04T08:08:25.369Z,19.93
2019-04-04T08:10:56.092Z,19.47
2019-04-04T08:13:26.778Z,19.10
2019-04-04T08:15:57.557Z,19.80
2019-04-04T08:18:28.307Z,18.50
2019-04-04T08:20:58.959Z,18.90
2019-04-04T08:23:29.837Z,22.20
2019-04-04T08:26:00.646Z,20.23
2019-04-04T08:28:52.351Z,21.87
2019-04-04T08:31:30.483Z,20.70
2019-04-04T08:34:01.350Z,21.03
2019-04-04T08:36:32.049Z,19.37
2019-04-04T08:39:04.845Z,20.27
2019-04-04T08:41:35.578Z,20.03
2019-04-04T08:44:06.458Z,20.40
2019-04-04T08:46:37.398Z,20.70
2019-04-04T08:49:08.353Z,21.97
2019-04-04T08:51:39.212Z,19.87
2019-04-04T08:54:09.997Z,20.23
2019-04-04T08:56:40.855Z,19.00
2019-04-04T08:59:13.590Z,19.67
2019-04-04T09:01:45.609Z,17.80
2019-04-04T09:04:16.500Z,18.77
2019-04-04T09:06:47.254Z,20.63
2019-04-04T09:09:17.917Z,18.50
2019-04-04T09:11:48.715Z,19.53
2019-04-04T09:14:19.605Z,17.93
2019-04-04T09:16:50.775Z,17.50
2019-04-04T09:19:21.735Z,20.30
2019-04-04T09:21:52.932Z,19.27
2019-04-04T09:24:23.588Z,17.87
2019-04-04T09:26:54.586Z,18.33
2019-04-04T09:29:25.357Z,17.90
2019-04-04T09:31:56.133Z,18.03
2019-04-04T09:34:26.908Z,19.07
2019-04-04T09:36:58.020Z,18.03
2019-04-04T09:39:28.847Z,17.73
2019-04-04T09:42:12.126Z,18.90
2019-04-04T09:44:46.370Z,16.57
2019-04-04T09:47:26.213Z,16.83
2019-04-04T09:50:11.949Z,16.77
2019-04-04T09:52:44.838Z,18.30
2019-04-04T09:55:16.884Z,16.97
2019-04-04T09:57:48.234Z,17.00
2019-04-04T10:00:22.142Z,17.77
2019-04-04T10:02:52.897Z,16.83
2019-04-04T10:05:23.636Z,18.53
2019-04-04T10:07:56.494Z,17.03
2019-04-04T10:10:27.689Z,17.27
2019-04-04T10:13:00.965Z,17.43
2019-04-04T10:15:32.115Z,17.83
2019-04-04T10:18:09.605Z,17.53
2019-04-04T10:20:40.853Z,17.70
2019-04-04T10:23:13.472Z,19.70
2019-04-04T10:25:44.790Z,18.60
2019-04-04T10:28:17.444Z,19.40
2019-04-04T10:30:50.498Z,18.50
2019-04-04T10:33:22.797Z,18.33
2019-04-04T10:35:53.653Z,20.90
2019-04-04T10:38:24.534Z,19.77
2019-04-04T10:40:55.163Z,20.27
2019-04-04T10:43:25.946Z,20.10
2019-04-04T10:45:56.777Z,18.43
2019-04-04T10:48:27.533Z,18.93
2019-04-04T10:50:58.232Z,20.40
2019-04-04T10:53:29.102Z,20.87
2019-04-04T10:56:01.017Z,20.10
2019-04-04T10:58:34.175Z,20.73
2019-04-04T11:01:07.383Z,21.13
2019-04-04T11:03:38.551Z,19.90
2019-04-04T11:06:09.175Z,20.37
2019-04-04T11:08:39.865Z,19.20
2019-04-04T11:11:10.658Z,21.70
2019-04-04T11:13:41.294Z,19.37
2019-04-04T11:16:12.026Z,19.30
2019-04-04T11:18:42.818Z,19.97
2019-04-04T11:21:13.646Z,19.33
2019-04-04T11:23:45.977Z,19.40
2019-04-04T11:26:18.473Z,19.80
2019-04-04T11:28:49.354Z,18.53
2019-04-04T11:31:20.233Z,17.50
2019-04-04T11:33:51.028Z,18.27
2019-04-04T11:36:21.860Z,19.80
2019-04-04T11:38:52.555Z,20.53
2019-04-04T11:41:23.394Z,18.50
2019-04-04T11:43:55.811Z,18.17
2019-04-04T11:46:26.531Z,19.40
2019-04-04T11:48:57.275Z,18.00
2019-04-04T11:51:28.178Z,19.77
2019-04-04T11:53:59.080Z,19.23
2019-04-04T11:56:30.026Z,20.60
2019-04-04T11:59:00.693Z,19.37
2019-04-04T12:01:32.597Z,20.57
2019-04-04T12:04:03.316Z,18.87
2019-04-04T12:06:34.042Z,20.00
2019-04-04T12:09:07.150Z,18.70
2019-04-04T12:11:41.260Z,21.07
2019-04-04T12:14:12.082Z,18.57
2019-04-04T12:16:42.922Z,19.80
2019-04-04T12:19:13.570Z,20.57
2019-04-04T12:21:44.320Z,18.47
2019-04-04T12:24:17.931Z,20.00
2019-04-04T12:26:48.771Z,20.67
2019-04-04T12:29:19.586Z,19.33
2019-04-04T12:31:51.403Z,22.97
2019-04-04T12:34:22.198Z,22.83
2019-04-04T12:36:53.208Z,23.00
2019-04-04T12:39:24.360Z,23.73
2019-04-04T12:41:55.026Z,21.97
2019-04-04T12:44:25.855Z,23.87
2019-04-04T12:46:56.568Z,24.10
2019-04-04T12:49:27.282Z,24.53
2019-04-04T12:51:57.968Z,24.33
2019-04-04T12:54:28.664Z,23.43
2019-04-04T12:57:02.265Z,23.87
2019-04-04T12:59:32.989Z,22.53
2019-04-04T13:02:03.897Z,21.87
2019-04-04T13:04:34.753Z,21.80
2019-04-04T13:07:05.476Z,24.50
2019-04-04T13:09:36.880Z,24.40
2019-04-04T13:12:07.994Z,21.57
2019-04-04T13:14:38.657Z,21.37
2019-04-04T13:17:09.392Z,24.50
2019-04-04T13:19:40.199Z,23.93
2019-04-04T13:22:11.864Z,22.17
2019-04-04T13:24:42.811Z,22.40
2019-04-04T13:27:13.633Z,20.83
2019-04-04T13:29:44.439Z,21.53
2019-04-04T13:32:15.312Z,22.17
2019-04-04T13:34:58.388Z,22.43
2019-04-04T13:37:18.729Z,21.20
2019-04-04T13:39:49.418Z,21.37
2019-04-04T13:42:20.178Z,21.40
2019-04-04T13:44:52.937Z,21.40
2019-04-04T13:47:24.140Z,21.33
2019-04-04T13:49:54.861Z,21.07
2019-04-04T13:52:27.094Z,22.27
2019-04-04T13:54:58.113Z,21.80
2019-04-04T13:57:28.996Z,22.03
2019-04-04T13:59:59.761Z,22.27
2019-04-04T14:02:30.538Z,22.40
2019-04-04T14:05:09.728Z,19.93
2019-04-04T14:07:34.015Z,19.43
2019-04-04T14:10:05.604Z,19.70
2019-04-04T14:12:36.601Z,18.53
2019-04-04T14:15:08.459Z,19.30
2019-04-04T14:17:39.459Z,19.80
2019-04-04T14:20:11.214Z,19.30
2019-04-04T14:22:41.929Z,19.13
2019-04-04T14:25:12.799Z,20.47
2019-04-04T14:27:43.467Z,22.00
2019-04-04T14:30:15.089Z,21.47
2019-04-04T14:32:48.498Z,21.87
2019-04-04T14:35:19.175Z,21.53
2019-04-04T14:37:50.040Z,20.63
2019-04-04T14:40:20.776Z,20.80
2019-04-04T14:42:51.616Z,21.80
2019-04-04T14:45:22.552Z,21.47
2019-04-04T14:47:53.704Z,19.60
2019-04-04T14:50:24.476Z,18.27
2019-04-04T14:52:55.365Z,19.53
2019-04-04T14:55:26.033Z,20.10
2019-04-04T14:57:57.003Z,20.67
2019-04-04T15:00:27.601Z,21.60
2019-04-04T15:02:58.280Z,19.77
2019-04-04T15:05:28.956Z,20.00
2019-04-04T15:08:01.056Z,21.27
2019-04-04T15:10:32.262Z,20.53
2019-04-04T15:13:03.150Z,19.60
2019-04-04T15:15:33.908Z,20.20
2019-04-04T15:18:06.836Z,18.93
2019-04-04T15:20:37.789Z,21.33
2019-04-04T15:23:11.218Z,20.03
2019-04-04T15:25:43.925Z,20.17
2019-04-04T15:28:14.649Z,19.10
2019-04-04T15:30:52.435Z,19.77
2019-04-04T15:33:27.191Z,20.90
2019-04-04T15:36:00.485Z,19.03
2019-04-04T15:38:31.367Z,20.47
2019-04-04T15:41:10.826Z,19.73
2019-04-04T15:43:43.277Z,21.87
2019-04-04T15:46:16.347Z,19.33
2019-04-04T15:48:51.503Z,21.73
2019-04-04T15:51:25.710Z,20.77
2019-04-04T15:53:58.103Z,19.53
2019-04-04T15:56:31.984Z,20.90
2019-04-04T15:59:03.539Z,20.20
2019-04-04T16:01:34.315Z,20.53
2019-04-04T16:04:06.632Z,20.80
2019-04-04T16:06:46.931Z,20.70
2019-04-04T16:09:20.743Z,20.40
2019-04-04T16:11:53.274Z,21.97
2019-04-04T16:14:30.667Z,22.17
2019-04-04T16:17:03.296Z,20.50
2019-04-04T16:19:36.110Z,20.73
2019-04-04T16:22:10.480Z,20.80
2019-04-04T16:24:41.977Z,21.20
2019-04-04T16:27:13.064Z,21.00
2019-04-04T16:29:48.051Z,20.07
2019-04-04T16:32:25.643Z,20.53
2019-04-04T16:35:00.181Z,21.40
2019-04-04T16:37:31.018Z,22.13
2019-04-04T16:40:09.140Z,20.40
2019-04-04T16:42:37.784Z,21.70
2019-04-04T16:45:09.016Z,21.13
2019-04-04T16:47:40.806Z,21.07
2019-04-04T16:50:11.800Z,21.40
2019-04-04T16:52:44.074Z,21.83
2019-04-04T16:55:14.938Z,21.67
2019-04-04T16:57:46.139Z,22.63
2019-04-04T17:00:22.257Z,20.57
2019-04-04T17:02:52.119Z,22.67
2019-04-04T17:05:23.049Z,22.03
2019-04-04T17:07:54.045Z,22.20
2019-04-04T17:10:28.264Z,22.37
2019-04-04T17:13:03.180Z,21.77
2019-04-04T17:15:34.846Z,21.10
2019-04-04T17:18:05.943Z,22.17
2019-04-04T17:20:36.647Z,21.63
2019-04-04T17:23:10.519Z,23.17
2019-04-04T17:25:41.238Z,22.27
2019-04-04T17:28:12.748Z,22.80
2019-04-04T17:30:43.898Z,21.47
2019-04-04T17:33:17.398Z,22.33
2019-04-04T17:35:49.687Z,22.00
2019-04-04T17:38:25.995Z,22.53
2019-04-04T17:40:56.831Z,24.33
2019-04-04T17:43:30.453Z,23.60
2019-04-04T17:46:01.158Z,23.57
2019-04-04T17:48:32.906Z,25.20
2019-04-04T17:51:04.356Z,24.60
2019-04-04T17:53:35.440Z,26.43
2019-04-04T17:56:08.562Z,26.13
2019-04-04T17:58:39.622Z,25.90
2019-04-04T18:01:14.977Z,26.90
2019-04-04T18:03:47.157Z,25.40
2019-04-04T18:06:20.856Z,27.90
2019-04-04T18:08:59.835Z,28.90
2019-04-04T18:11:36.184Z,32.10
2019-04-04T18:14:17.669Z,25.63
2019-04-04T18:16:54.903Z,29.83
2019-04-04T18:19:29.688Z,28.27
2019-04-04T18:22:10.827Z,27.10
2019-04-04T18:24:47.233Z,28.57
2019-04-04T18:27:21.318Z,28.10
2019-04-04T18:29:52.570Z,28.70
2019-04-04T18:32:26.524Z,26.33
2019-04-04T18:35:09.280Z,30.30
2019-04-04T18:37:41.921Z,29.67
2019-04-04T18:40:13.650Z,30.10
2019-04-04T18:42:53.268Z,28.80
2019-04-04T18:45:20.649Z,30.60
2019-04-04T18:47:51.450Z,31.67
2019-04-04T18:50:26.507Z,31.00
2019-04-04T18:53:03.734Z,30.87
2019-04-04T18:55:35.264Z,31.20
2019-04-04T18:58:16.746Z,31.50
2019-04-04T19:00:53.439Z,33.00
2019-04-04T19:03:29.709Z,33.63
2019-04-04T19:06:05.034Z,31.47
2019-04-04T19:08:43.729Z,30.93
2019-04-04T19:11:21.674Z,32.50
2019-04-04T19:13:53.912Z,30.90
2019-04-04T19:16:36.478Z,33.87
2019-04-04T19:19:11.768Z,32.40
2019-04-04T19:21:48.494Z,32.30
2019-04-04T19:24:20.834Z,32.90
2019-04-04T19:26:57.778Z,33.53
2019-04-04T19:29:40.778Z,34.33
2019-04-04T19:32:15.059Z,33.53
2019-04-04T19:34:49.202Z,34.40
2019-04-04T19:37:29.910Z,35.73
2019-04-04T19:40:16.357Z,33.00
2019-04-04T19:42:55.444Z,36.03
2019-04-04T19:45:27.602Z,34.03
2019-04-04T19:48:02.409Z,35.40
2019-04-04T19:50:51.139Z,37.53
2019-04-04T19:53:28.922Z,34.97
2019-04-04T19:56:01.837Z,37.93
2019-04-04T19:58:36.112Z,36.20
2019-04-04T20:01:07.771Z,37.70
2019-04-04T20:03:39.246Z,37.70
2019-04-04T20:06:10.278Z,41.70
2019-04-04T20:08:41.204Z,40.67
2019-04-04T20:11:11.990Z,38.40
2019-04-04T20:13:42.806Z,39.40
2019-04-04T20:16:13.523Z,39.40
2019-04-04T20:18:44.144Z,38.03
2019-04-04T20:21:14.942Z,39.57
2019-04-04T20:23:47.199Z,36.67
2019-04-04T20:26:22.758Z,37.27
2019-04-04T20:28:53.753Z,35.93
2019-04-04T20:31:32.263Z,35.90
2019-04-04T20:34:06.082Z,35.50
2019-04-04T20:36:40.998Z,36.47
2019-04-04T20:39:55.890Z,35.70
2019-04-04T20:42:38.339Z,33.87
2019-04-04T20:45:11.822Z,34.33
2019-04-04T20:47:52.671Z,33.97
2019-04-04T20:54:33.299Z,35.63
2019-04-04T21:01:43.426Z,33.60
2019-04-04T21:04:15.745Z,37.10
2019-04-04T21:06:47.058Z,34.40
2019-04-04T21:09:20.598Z,35.47
2019-04-04T21:11:51.000Z,37.40
2019-04-04T21:14:23.909Z,35.13
2019-04-04T21:17:02.160Z,34.40
2019-04-04T21:19:41.307Z,35.97
2019-04-04T21:22:11.638Z,36.47
2019-04-04T21:24:49.306Z,34.80
2019-04-04T21:27:22.145Z,35.57
2019-04-04T21:29:53.339Z,34.23
2019-04-04T21:32:32.117Z,34.77
2019-04-04T21:35:05.666Z,37.50
2019-04-04T21:37:39.321Z,36.10
2019-04-04T21:40:10.678Z,37.60
2019-04-04T21:42:47.334Z,37.37
2019-04-04T21:45:21.769Z,36.80
2019-04-04T21:47:52.992Z,35.00
2019-04-04T21:50:25.783Z,37.67
2019-04-04T21:52:59.862Z,38.30
2019-04-04T21:55:33.991Z,36.57
2019-04-04T21:58:19.038Z,37.23
2019-04-04T22:00:54.809Z,38.60
2019-04-04T22:03:28.416Z,41.33
2019-04-04T22:06:06.536Z,37.10
2019-04-04T22:08:37.768Z,38.17
2019-04-04T22:11:16.610Z,39.23
2019-04-04T22:13:54.245Z,39.17
2019-04-04T22:16:30.854Z,39.10
2019-04-04T22:19:02.848Z,39.30
2019-04-04T22:21:40.159Z,40.30
2019-04-04T22:24:22.387Z,38.20
2019-04-04T22:27:00.424Z,36.57
2019-04-04T22:29:31.650Z,35.97
2019-04-04T22:32:06.247Z,40.90
2019-04-04T22:34:41.933Z,41.43
2019-04-04T22:37:16.962Z,39.90
2019-04-04T22:39:56.200Z,38.80
2019-04-04T22:42:39.240Z,38.93
2019-04-04T22:45:12.555Z,39.73
2019-04-04T22:47:52.076Z,35.83
2019-04-04T22:50:23.364Z,38.10
2019-04-04T22:52:55.867Z,37.87
2019-04-04T22:55:27.688Z,37.33
2019-04-04T22:58:00.242Z,38.20
2019-04-04T23:00:31.326Z,39.87
2019-04-04T23:03:03.690Z,38.13
2019-04-04T23:05:35.050Z,40.23
2019-04-04T23:08:08.875Z,38.47
2019-04-04T23:10:39.894Z,38.17
2019-04-04T23:13:11.108Z,39.80
2019-04-04T23:15:43.955Z,38.37
2019-04-04T23:18:17.319Z,39.83
2019-04-04T23:20:48.563Z,38.50
2019-04-04T23:23:21.330Z,41.60
2019-04-04T23:25:52.266Z,38.87
2019-04-04T23:28:23.476Z,38.47
2019-04-04T23:30:58.420Z,38.90
2019-04-04T23:33:29.770Z,38.20
2019-04-04T23:36:00.931Z,36.40
2019-04-04T23:38:34.161Z,39.20
2019-04-04T23:41:08.087Z,37.57
2019-04-04T23:43:50.833Z,39.20
2019-04-04T23:46:23.385Z,38.37
2019-04-04T23:48:58.462Z,38.53
2019-04-04T23:51:29.492Z,38.47
2019-04-04T23:54:01.902Z,38.37
2019-04-04T23:56:33.566Z,38.77
2019-04-04T23:59:04.874Z,39.87
